Time;durP1;ratioP1;P1;durP2;ratioP2;P2;SDS_P1;SDS_P2;PMS_P1;PMS_P2;Temp;Humidity;BMP_temperature;BMP_pressure;BME280_temperature;BME280_humidity;BME280_pressure;Samples;Min_cycle;Max_cycle;Signal;HPM_P1;HPM_P2
2023/06/07 00:02:38;;;;;;;9.13;6.60;;;;;;;15.94;100.00;100398.91;5587187;31;33865;-68
2023/06/07 00:05:47;;;;;;;10.32;7.07;;;;;;;15.99;100.00;100396.44;5587134;31;34036;-68
2023/06/07 00:08:52;;;;;;;11.20;6.60;;;;;;;15.98;100.00;100396.63;5587106;31;34476;-68
2023/06/07 00:11:57;;;;;;;11.88;7.57;;;;;;;15.99;100.00;100390.28;5586175;31;34848;-68
2023/06/07 00:15:02;;;;;;;11.00;7.18;;;;;;;15.99;100.00;100391.09;5586914;31;33756;-68
2023/06/07 00:18:07;;;;;;;11.12;7.35;;;;;;;16.03;100.00;100394.19;5587376;31;34519;-68
2023/06/07 00:21:12;;;;;;;10.18;7.22;;;;;;;16.03;100.00;100389.66;5586997;31;33598;-68
2023/06/07 00:24:17;;;;;;;13.05;7.43;;;;;;;15.99;100.00;100387.59;5586799;31;33994;-68
2023/06/07 00:27:21;;;;;;;9.50;7.15;;;;;;;15.92;100.00;100379.56;5586949;31;34596;-68
2023/06/07 00:30:25;;;;;;;12.48;7.25;;;;;;;15.92;100.00;100379.56;5586958;31;33648;-68
2023/06/07 00:33:29;;;;;;;14.98;7.43;;;;;;;15.93;100.00;100381.19;5585987;31;33676;-68
2023/06/07 00:36:34;;;;;;;10.15;7.25;;;;;;;15.94;100.00;100382.03;5586677;31;33907;-68
2023/06/07 00:39:39;;;;;;;12.60;7.40;;;;;;;15.90;100.00;100380.78;5586816;31;34242;-68
2023/06/07 00:42:44;;;;;;;12.75;7.90;;;;;;;15.86;100.00;100380.38;5586711;31;33719;-68
2023/06/07 00:45:48;;;;;;;12.88;7.47;;;;;;;15.88;100.00;100374.78;5585731;31;33771;-68
2023/06/07 00:48:52;;;;;;;11.45;7.70;;;;;;;15.89;100.00;100385.31;5586545;31;33912;-68
2023/06/07 00:51:57;;;;;;;12.93;7.87;;;;;;;15.86;100.00;100376.88;5586367;31;34522;-68
2023/06/07 00:55:03;;;;;;;13.32;7.82;;;;;;;15.85;100.00;100381.38;5586216;31;34123;-68
2023/06/07 00:58:07;;;;;;;10.40;7.43;;;;;;;15.85;100.00;100383.25;5586366;31;34569;-68
2023/06/07 01:01:13;;;;;;;11.07;7.45;;;;;;;15.90;100.00;100383.47;5586367;31;33843;-68
2023/06/07 01:04:20;;;;;;;11.30;6.55;;;;;;;15.88;100.00;100390.84;5586349;31;34488;-68
2023/06/07 01:07:25;;;;;;;11.98;6.90;;;;;;;15.93;100.00;100391.06;5586345;31;34958;-68
2023/06/07 01:10:31;;;;;;;10.13;7.55;;;;;;;15.85;100.00;100384.06;5586066;31;34727;-68
2023/06/07 01:13:37;;;;;;;10.18;6.75;;;;;;;15.85;100.00;100383.25;5586385;31;33793;-68
2023/06/07 01:16:48;;;;;;;10.68;7.10;;;;;;;15.85;100.00;100380.56;5586167;31;34037;-68
2023/06/07 01:19:55;;;;;;;8.88;6.85;;;;;;;15.82;100.00;100379.13;5586377;31;34158;-68
2023/06/07 01:23:05;;;;;;;10.32;7.22;;;;;;;15.80;100.00;100369.66;5586007;31;33898;-69
2023/06/07 01:26:11;;;;;;;12.95;7.00;;;;;;;15.78;100.00;100371.72;5585978;31;34142;-68
2023/06/07 01:29:16;;;;;;;9.88;6.93;;;;;;;15.79;100.00;100359.97;5585963;31;33574;-68
2023/06/07 01:32:22;;;;;;;9.82;7.25;;;;;;;15.79;100.00;100366.13;5585967;31;33678;-68
2023/06/07 01:35:28;;;;;;;9.57;7.28;;;;;;;15.78;100.00;100364.47;5585834;31;33860;-68
2023/06/07 01:38:33;;;;;;;13.70;7.12;;;;;;;15.78;100.00;100367.16;5585819;31;33916;-68
2023/06/07 01:41:39;;;;;;;12.57;7.50;;;;;;;15.81;100.00;100361.44;5585710;31;33889;-69
2023/06/07 01:44:48;;;;;;;10.40;7.30;;;;;;;15.79;100.00;100360.78;5585557;31;33883;-68
2023/06/07 01:47:52;;;;;;;10.93;7.65;;;;;;;15.79;100.00;100355.44;5585572;31;34567;-68
2023/06/07 01:50:57;;;;;;;11.93;8.10;;;;;;;15.79;100.00;100352.75;5585423;31;33896;-68
2023/06/07 01:54:04;;;;;;;11.63;8.10;;;;;;;15.87;100.00;100360.62;5585501;31;33692;-68
2023/06/07 01:57:21;;;;;;;10.07;8.35;;;;;;;15.88;100.00;100356.06;5587353;31;34797;-68
2023/06/07 02:00:35;;;;;;;11.70;8.18;;;;;;;15.91;100.00;100361.88;5588221;31;34492;-68
2023/06/07 02:03:43;;;;;;;10.50;8.32;;;;;;;15.98;100.00;100362.69;5588086;31;34394;-68
2023/06/07 02:06:52;;;;;;;14.52;8.65;;;;;;;15.97;100.00;100360.22;5587962;31;34370;-68
2023/06/07 02:09:58;;;;;;;13.23;8.70;;;;;;;15.98;100.00;100364.53;5588016;31;33901;-69
2023/06/07 02:13:03;;;;;;;14.27;8.70;;;;;;;16.00;100.00;100363.31;5588036;31;33537;-68
2023/06/07 02:16:07;;;;;;;14.25;9.00;;;;;;;15.97;100.00;100369.09;5587876;31;33810;-68
2023/06/07 02:19:13;;;;;;;11.52;9.10;;;;;;;15.98;100.00;100367.22;5587991;31;34279;-68
2023/06/07 02:22:20;;;;;;;12.32;8.35;;;;;;;16.04;100.00;100355.69;5587997;31;33846;-68
2023/06/07 02:25:25;;;;;;;11.82;8.40;;;;;;;16.05;100.00;100360.03;5587978;31;33593;-68
2023/06/07 02:28:29;;;;;;;11.52;8.45;;;;;;;16.03;100.00;100357.56;5587795;31;34688;-68
2023/06/07 02:31:34;;;;;;;12.73;8.55;;;;;;;15.98;100.00;100365.34;5587906;31;35052;-68
2023/06/07 02:34:39;;;;;;;11.90;8.43;;;;;;;15.98;100.00;100359.19;5587832;31;33950;-68
2023/06/07 02:37:45;;;;;;;16.02;8.43;;;;;;;16.04;100.00;100353.84;5587853;31;34456;-68
2023/06/07 02:40:49;;;;;;;10.30;8.00;;;;;;;16.03;100.00;100354.03;5587743;31;34546;-68
2023/06/07 02:43:53;;;;;;;11.80;7.30;;;;;;;16.02;100.00;100350.53;5587812;31;33940;-68
2023/06/07 02:46:59;;;;;;;14.70;7.47;;;;;;;15.97;100.00;100361.06;5587847;31;33887;-68
2023/06/07 02:50:05;;;;;;;10.70;7.22;;;;;;;15.97;100.00;100357.56;5587694;31;34239;-68
2023/06/07 02:53:09;;;;;;;11.05;6.80;;;;;;;15.93;100.00;100361.63;5587734;31;34490;-68
2023/06/07 02:56:14;;;;;;;11.82;7.05;;;;;;;15.92;100.00;100360.00;5587622;31;33776;-68
2023/06/07 02:59:19;;;;;;;9.05;6.80;;;;;;;15.87;100.00;100355.28;5587584;31;34547;-68
2023/06/07 03:02:23;;;;;;;8.18;6.65;;;;;;;15.83;100.00;100353.22;5587699;31;33699;-68
2023/06/07 03:05:28;;;;;;;11.20;6.43;;;;;;;15.81;100.00;100357.94;5587699;31;33671;-68
2023/06/07 03:08:34;;;;;;;13.45;6.85;;;;;;;15.78;100.00;100356.47;5587155;31;34444;-68
2023/06/07 03:11:38;;;;;;;11.15;6.75;;;;;;;15.77;100.00;100357.50;5587847;31;33611;-69
2023/06/07 03:14:43;;;;;;;10.65;6.75;;;;;;;15.78;100.00;100358.34;5587435;31;34425;-69
2023/06/07 03:17:48;;;;;;;9.82;6.82;;;;;;;15.79;100.00;100363.47;5587548;31;33857;-68
2023/06/07 03:20:53;;;;;;;9.02;7.00;;;;;;;15.82;100.00;100360.41;5586064;31;33920;-68
2023/06/07 03:23:57;;;;;;;8.38;6.47;;;;;;;15.82;100.00;100363.09;5587364;31;35259;-69
2023/06/07 03:27:08;;;;;;;8.88;6.87;;;;;;;15.79;100.00;100368.00;5587347;31;33967;-68
2023/06/07 03:30:13;;;;;;;9.50;7.22;;;;;;;15.76;100.00;100368.41;5587217;31;35463;-68
2023/06/07 03:33:18;;;;;;;9.98;7.32;;;;;;;15.74;100.00;100368.59;5587309;31;33538;-68
2023/06/07 03:36:25;;;;;;;12.55;10.30;;;;;;;15.82;100.00;100367.59;5587318;31;33854;-68
2023/06/07 03:39:31;;;;;;;13.40;8.25;;;;;;;15.86;100.00;100369.66;5587733;31;33630;-68
2023/06/07 03:42:36;;;;;;;14.35;9.07;;;;;;;15.90;100.00;100367.41;5587351;31;33789;-68
2023/06/07 03:45:41;;;;;;;21.12;9.02;;;;;;;16.04;100.00;100369.06;5587307;31;33476;-69
2023/06/07 03:48:46;;;;;;;11.65;8.18;;;;;;;16.02;100.00;100376.50;5587225;31;34504;-69
2023/06/07 03:51:54;;;;;;;13.35;9.10;;;;;;;16.09;100.00;100377.31;5587048;31;34066;-68
2023/06/07 03:54:59;;;;;;;11.35;8.40;;;;;;;16.12;100.00;100376.91;5587145;31;33512;-68
2023/06/07 03:58:05;;;;;;;14.55;8.75;;;;;;;16.20;100.00;100376.72;5587250;31;34453;-68
2023/06/07 04:01:10;;;;;;;10.18;7.85;;;;;;;16.27;100.00;100384.75;5587003;31;34840;-68
2023/06/07 04:04:15;;;;;;;11.38;6.72;;;;;;;16.22;100.00;100382.69;5587078;31;34320;-68
2023/06/07 04:07:19;;;;;;;10.00;7.10;;;;;;;16.20;100.00;100379.41;5587082;31;33950;-67
2023/06/07 04:10:25;;;;;;;9.43;6.80;;;;;;;16.23;100.00;100370.13;5587121;31;33611;-68
2023/06/07 04:13:30;;;;;;;7.97;5.68;;;;;;;16.33;100.00;100370.56;5586842;31;34587;-67
2023/06/07 04:16:34;;;;;;;11.12;6.20;;;;;;;16.40;100.00;100372.22;5586551;31;33977;-67
2023/06/07 04:19:38;;;;;;;11.95;5.60;;;;;;;16.45;100.00;100375.09;5584857;31;33749;-67
2023/06/07 04:22:55;;;;;;;9.50;6.22;;;;;;;16.46;100.00;100376.72;5586882;31;33597;-67
2023/06/07 04:25:59;;;;;;;9.98;5.57;;;;;;;16.53;100.00;100371.38;5586803;31;33842;-67
2023/06/07 04:29:04;;;;;;;9.32;6.00;;;;;;;16.58;100.00;100384.16;5586707;31;33825;-67
2023/06/07 04:32:09;;;;;;;8.13;5.37;;;;;;;16.68;100.00;100388.09;5586144;31;34832;-67
2023/06/07 04:35:16;;;;;;;8.93;5.65;;;;;;;16.84;100.00;100384.19;5586851;31;34062;-67
2023/06/07 04:38:21;;;;;;;14.00;5.60;;;;;;;16.93;100.00;100394.47;5586676;31;33738;-67
2023/06/07 04:41:32;;;;;;;10.15;4.70;;;;;;;16.84;100.00;100379.66;5586831;31;34268;-66
2023/06/07 04:44:37;;;;;;;;;;;;;;;16.83;100.00;100385.19;5587144;31;35192;-67
2023/06/07 04:47:45;;;;;;;10.68;4.62;;;;;;;16.99;100.00;100392.81;5586303;31;34562;-67
2023/06/07 04:50:56;;;;;;;8.15;4.22;;;;;;;17.08;100.00;100388.88;5586291;31;34298;-67
2023/06/07 04:54:04;;;;;;;5.82;4.30;;;;;;;16.98;100.00;100385.81;5585749;31;33676;-67
2023/06/07 04:57:08;;;;;;;9.30;4.72;;;;;;;17.16;100.00;100385.97;5586074;31;33929;-67
2023/06/07 05:00:14;;;;;;;14.90;4.95;;;;;;;17.25;100.00;100387.38;5585657;31;34553;-66
2023/06/07 05:03:24;;;;;;;6.28;4.40;;;;;;;17.45;100.00;100386.47;5586330;31;33842;-67
2023/06/07 05:06:29;;;;;;;6.72;4.50;;;;;;;17.43;100.00;100397.41;5577976;31;33836;-66
2023/06/07 05:09:34;;;;;;;8.98;4.72;;;;;;;17.53;100.00;100402.31;5572371;31;34071;-66
2023/06/07 05:12:39;;;;;;;6.30;4.03;;;;;;;17.50;100.00;100400.91;5566457;32;33644;-66
2023/06/07 05:15:44;;;;;;;5.28;4.05;;;;;;;17.55;100.00;100398.41;5567148;31;34669;-66
2023/06/07 05:18:49;;;;;;;11.27;3.87;;;;;;;17.60;100.00;100404.00;5566429;31;33846;-66
2023/06/07 05:21:54;;;;;;;10.65;3.72;;;;;;;17.76;100.00;100395.47;5583129;31;33807;-66
2023/06/07 05:24:57;;;;;;;6.50;3.67;;;;;;;17.69;100.00;100391.97;5582353;31;33677;-67
2023/06/07 05:28:03;;;;;;;11.95;3.62;;;;;;;17.91;100.00;100395.16;5576638;31;34396;-67
2023/06/07 05:31:14;;;;;;;6.80;3.80;;;;;;;17.92;100.00;100395.97;5584442;31;34614;-67
2023/06/07 05:34:17;;;;;;;5.70;3.53;;;;;;;18.14;100.00;100400.81;5587806;31;34145;-67
2023/06/07 05:37:20;;;;;;;7.10;4.20;;;;;;;18.40;100.00;100393.59;5585502;31;34425;-67
2023/06/07 05:40:24;;;;;;;11.32;4.30;;;;;;;18.47;100.00;100391.69;5587794;31;33447;-67
2023/06/07 05:43:28;;;;;;;6.70;4.15;;;;;;;18.49;100.00;100401.16;5587123;31;33715;-67
2023/06/07 05:46:32;;;;;;;7.12;4.12;;;;;;;18.59;100.00;100396.16;5583310;31;34350;-68
2023/06/07 05:49:36;;;;;;;8.27;4.35;;;;;;;18.70;100.00;100399.19;5587378;31;33905;-68
2023/06/07 05:52:40;;;;;;;5.47;4.55;;;;;;;18.59;100.00;100398.03;5586198;31;34744;-68
2023/06/07 05:55:45;;;;;;;6.30;4.37;;;;;;;18.76;100.00;100407.19;5567058;31;33622;-68
2023/06/07 05:58:51;;;;;;;9.82;4.80;;;;;;;18.59;100.00;100398.84;5572442;31;34615;-68
2023/06/07 06:01:54;;;;;;;9.48;4.25;;;;;;;18.62;100.00;100409.19;5587430;31;33803;-67
2023/06/07 06:04:58;;;;;;;5.80;3.87;;;;;;;18.78;100.00;100405.12;5583797;31;34057;-68
2023/06/07 06:08:02;;;;;;;7.90;4.32;;;;;;;18.90;100.00;100414.09;5582628;31;34509;-68
2023/06/07 06:11:05;;;;;;;9.52;4.05;;;;;;;18.95;100.00;100408.88;5584661;31;33823;-68
2023/06/07 06:14:10;;;;;;;6.35;4.00;;;;;;;19.15;100.00;100414.06;5586239;31;33971;-68
2023/06/07 06:17:13;;;;;;;10.10;4.15;;;;;;;19.27;100.00;100420.31;5586772;31;33866;-67
2023/06/07 06:20:16;;;;;;;9.25;4.40;;;;;;;19.24;100.00;100415.41;5587228;31;33897;-68
2023/06/07 06:23:20;;;;;;;9.38;4.07;;;;;;;19.00;100.00;100417.09;5582299;31;34573;-67
2023/06/07 06:26:27;;;;;;;12.88;4.28;;;;;;;19.23;100.00;100413.75;5572293;31;33813;-67
2023/06/07 06:29:31;;;;;;;7.53;4.22;;;;;;;19.20;100.00;100414.22;5567401;31;34789;-67
2023/06/07 06:32:34;;;;;;;10.73;4.30;;;;;;;19.00;100.00;100424.34;5569933;31;34026;-67
2023/06/07 06:35:38;;;;;;;8.35;3.70;;;;;;;19.08;100.00;100419.50;5585226;31;33981;-67
2023/06/07 06:38:42;;;;;;;6.37;3.78;;;;;;;19.29;100.00;100420.13;5586026;31;34428;-67
2023/06/07 06:41:46;;;;;;;10.10;3.83;;;;;;;19.28;100.00;100421.97;5574545;31;35033;-67
2023/06/07 06:44:51;;;;;;;7.68;3.70;;;;;;;19.22;100.00;100412.09;5578080;31;34430;-67
2023/06/07 06:47:55;;;;;;;8.10;4.28;;;;;;;19.36;100.00;100419.00;5572846;31;33741;-67
2023/06/07 06:50:58;;;;;;;12.25;5.07;;;;;;;19.49;100.00;100418.06;5575929;31;34294;-67
2023/06/07 06:54:01;;;;;;;5.35;3.90;;;;;;;19.67;100.00;100425.28;5587098;31;34691;-67
2023/06/07 06:57:05;;;;;;;11.32;5.57;;;;;;;19.55;100.00;100417.16;5576380;31;33911;-69
2023/06/07 07:00:10;;;;;;;8.25;4.22;;;;;;;19.06;100.00;100426.97;5580596;31;34579;-67
2023/06/07 07:03:14;;;;;;;8.88;4.80;;;;;;;18.48;100.00;100417.53;5572369;31;33827;-67
2023/06/07 07:06:18;;;;;;;11.57;5.55;;;;;;;18.89;100.00;100417.81;5578250;31;33968;-67
2023/06/07 07:09:21;;;;;;;8.00;5.30;;;;;;;19.16;100.00;100414.88;5586304;31;33910;-68
2023/06/07 07:12:25;;;;;;;8.40;4.97;;;;;;;19.21;100.00;100423.09;5586763;31;34360;-67
2023/06/07 07:15:29;;;;;;;10.57;5.40;;;;;;;19.75;100.00;100420.41;5587310;31;34015;-67
2023/06/07 07:18:36;;;;;;;7.32;5.20;;;;;;;19.64;100.00;100428.44;5584519;31;34073;-66
2023/06/07 07:21:39;;;;;;;14.07;5.35;;;;;;;20.01;100.00;100421.13;5577843;31;33620;-66
2023/06/07 07:24:46;;;;;;;8.63;4.82;;;;;;;20.31;100.00;100424.66;5581448;31;33864;-65
2023/06/07 07:27:50;;;;;;;8.65;4.53;;;;;;;20.24;100.00;100432.78;5568065;31;34007;-66
2023/06/07 07:30:54;;;;;;;8.90;4.60;;;;;;;20.52;100.00;100437.63;5583324;31;33904;-66
2023/06/07 07:33:57;;;;;;;10.90;4.65;;;;;;;20.77;100.00;100430.13;5583640;31;33424;-66
2023/06/07 07:37:02;;;;;;;6.43;4.55;;;;;;;20.73;100.00;100439.75;5574249;31;33778;-67
2023/06/07 07:40:10;;;;;;;7.93;4.50;;;;;;;20.96;100.00;100438.13;5569017;31;34656;-67
2023/06/07 07:43:15;;;;;;;11.27;4.80;;;;;;;21.06;100.00;100441.84;5577459;31;33879;-66
2023/06/07 07:46:18;;;;;;;9.15;4.50;;;;;;;21.15;100.00;100443.22;5587142;31;33606;-66
2023/06/07 07:49:22;;;;;;;10.15;4.70;;;;;;;20.94;100.00;100441.06;5580886;31;156904;-66
2023/06/07 07:52:25;;;;;;;9.75;4.37;;;;;;;21.02;100.00;100437.16;5586580;31;34181;-67
2023/06/07 07:55:30;;;;;;;9.95;4.18;;;;;;;21.24;100.00;100443.66;5586712;31;34561;-66
2023/06/07 07:58:35;;;;;;;10.90;4.82;;;;;;;21.42;100.00;100440.81;5586735;31;33853;-66
2023/06/07 08:01:39;;;;;;;9.32;4.65;;;;;;;21.16;100.00;100435.91;5586513;31;33595;-67
2023/06/07 08:04:42;;;;;;;10.05;4.43;;;;;;;21.31;100.00;100440.81;5586596;31;34616;-66
2023/06/07 08:07:46;;;;;;;12.23;4.60;;;;;;;21.31;100.00;100448.91;5572481;31;34025;-67
2023/06/07 08:10:50;;;;;;;7.97;4.00;;;;;;;21.50;100.00;100443.16;5568487;31;33810;-68
2023/06/07 08:13:53;;;;;;;8.27;4.22;;;;;;;21.43;100.00;100455.97;5574671;31;33644;-67
2023/06/07 08:16:56;;;;;;;9.02;4.53;;;;;;;21.63;100.00;100451.00;5571370;31;33784;-67
2023/06/07 08:19:59;;;;;;;7.55;4.43;;;;;;;21.78;100.00;100447.78;5583482;31;33799;-67
2023/06/07 08:23:03;;;;;;;8.80;4.43;;;;;;;21.20;100.00;100451.38;5576633;31;35330;-67
2023/06/07 08:26:06;;;;;;;10.05;4.37;;;;;;;20.96;100.00;100451.63;5586444;31;33573;-67
2023/06/07 08:29:11;;;;;;;9.85;4.53;;;;;;;21.29;100.00;100448.34;5586488;31;33770;-66
2023/06/07 08:32:14;;;;;;;9.75;4.62;;;;;;;21.45;100.00;100442.22;5585967;31;33887;-67
2023/06/07 08:35:18;;;;;;;10.07;4.37;;;;;;;21.67;100.00;100441.38;5586515;31;33913;-67
2023/06/07 08:38:21;;;;;;;9.07;4.40;;;;;;;21.97;100.00;100441.19;5586117;31;35140;-67
2023/06/07 08:41:27;;;;;;;11.30;4.30;;;;;;;21.87;100.00;100440.13;5585777;31;33912;-67
2023/06/07 08:44:30;;;;;;;13.40;4.22;;;;;;;21.54;100.00;100436.19;5585623;31;34494;-67
2023/06/07 08:47:35;;;;;;;9.35;4.07;;;;;;;21.99;100.00;100443.63;5586168;31;33953;-68
2023/06/07 08:50:38;;;;;;;9.88;4.37;;;;;;;21.87;100.00;100448.22;5585672;31;34318;-68
2023/06/07 08:54:03;;;;;;;9.25;4.30;;;;;;;21.90;100.00;100443.16;5584923;31;33671;-68
2023/06/07 08:57:09;;;;;;;11.07;4.03;;;;;;;22.02;100.00;100445.88;5585061;31;33731;-67
2023/06/07 09:00:13;;;;;;;10.70;4.55;;;;;;;22.05;100.00;100443.50;5585700;31;34523;-68
2023/06/07 09:03:16;;;;;;;16.77;4.10;;;;;;;22.03;100.00;100437.50;5586028;31;34152;-67
2023/06/07 09:06:22;;;;;;;9.18;4.15;;;;;;;22.09;100.00;100433.00;5585203;31;34532;-67
2023/06/07 09:09:25;;;;;;;12.90;4.18;;;;;;;21.91;100.00;100423.19;5585900;31;34054;-67
2023/06/07 09:12:29;;;;;;;10.05;4.32;;;;;;;22.03;100.00;100432.09;5585705;31;33621;-68
2023/06/07 09:15:34;;;;;;;6.60;4.18;;;;;;;21.94;100.00;100433.53;5584955;31;35250;-67
2023/06/07 09:18:41;;;;;;;8.65;4.62;;;;;;;21.94;100.00;100436.25;5584944;31;34026;-67
2023/06/07 09:21:45;;;;;;;10.43;4.78;;;;;;;22.27;100.00;100438.22;5585527;31;34908;-68
2023/06/07 09:24:49;;;;;;;8.65;4.57;;;;;;;22.36;100.00;100431.38;5578194;31;33968;-67
2023/06/07 09:27:54;;;;;;;7.10;4.78;;;;;;;22.48;100.00;100440.22;5585364;31;34498;-67
2023/06/07 09:31:00;;;;;;;9.75;4.60;;;;;;;22.55;100.00;100442.78;5585338;31;34377;-68
2023/06/07 09:34:22;;;;;;;6.47;4.60;;;;;;;22.54;100.00;100441.94;5585129;31;34712;-67
2023/06/07 09:37:51;;;;;;;8.80;4.40;;;;;;;22.41;100.00;100439.53;5584755;31;34462;-67
2023/06/07 09:40:59;;;;;;;11.73;4.60;;;;;;;22.17;100.00;100439.94;5584908;31;34004;-67
2023/06/07 09:44:06;;;;;;;8.48;4.43;;;;;;;22.15;100.00;100440.16;5584252;31;33803;-65
2023/06/07 09:47:21;;;;;;;6.40;4.40;;;;;;;22.22;100.00;100443.53;5585867;31;33746;-67
2023/06/07 09:50:25;;;;;;;9.23;4.70;;;;;;;22.16;100.00;100441.81;5590331;31;34067;-66
2023/06/07 09:53:47;;;;;;;12.73;5.37;;;;;;;21.97;100.00;100445.75;5589213;31;34310;-66
2023/06/07 09:56:52;;;;;;;12.32;5.18;;;;;;;21.38;100.00;100439.66;5589270;31;34442;-66
2023/06/07 09:59:57;;;;;;;9.05;4.70;;;;;;;21.30;100.00;100437.31;5587280;31;34183;-67
2023/06/07 10:03:06;;;;;;;11.95;4.85;;;;;;;21.82;100.00;100440.03;5585221;31;33672;-69
2023/06/07 10:06:11;;;;;;;9.27;4.97;;;;;;;21.90;100.00;100434.25;5585093;31;33877;-68
2023/06/07 10:09:17;;;;;;;7.50;5.22;;;;;;;21.34;100.00;100429.56;5588936;31;33824;-68
2023/06/07 10:12:29;;;;;;;9.93;5.20;;;;;;;21.23;100.00;100431.22;5589955;31;34391;-68
2023/06/07 10:15:35;;;;;;;9.70;5.40;;;;;;;21.32;100.00;100420.88;5588322;31;33558;-68
2023/06/07 10:18:41;;;;;;;9.43;5.40;;;;;;;21.04;100.00;100421.59;5581782;31;33921;-67
2023/06/07 10:21:49;;;;;;;13.38;4.97;;;;;;;20.95;100.00;100423.81;5568008;32;33911;-67
2023/06/07 10:25:01;;;;;;;6.22;4.85;;;;;;;21.01;100.00;100422.06;5567453;32;33843;-67
2023/06/07 10:28:14;;;;;;;6.05;4.93;;;;;;;21.46;100.00;100419.56;5567495;32;35345;-67
2023/06/07 10:31:20;;;;;;;18.27;5.50;;;;;;;21.79;100.00;100419.72;5581006;31;34455;-67
2023/06/07 10:34:26;;;;;;;11.38;5.37;;;;;;;21.60;100.00;100423.63;5587177;31;35101;-67
2023/06/07 10:37:33;;;;;;;10.70;5.37;;;;;;;21.56;100.00;100420.59;5587283;31;34750;-67
2023/06/07 10:40:36;;;;;;;14.75;6.22;;;;;;;21.98;100.00;100426.59;5587070;31;33734;-67
2023/06/07 10:43:39;;;;;;;8.43;5.10;;;;;;;22.40;100.00;100424.41;5586989;31;34172;-67
2023/06/07 10:46:43;;;;;;;6.60;5.03;;;;;;;22.61;100.00;100422.06;5587065;31;34484;-68
2023/06/07 10:49:48;;;;;;;9.23;5.12;;;;;;;22.46;100.00;100422.63;5587916;31;34552;-67
2023/06/07 10:52:59;;;;;;;8.20;5.20;;;;;;;22.81;100.00;100425.91;5586817;31;33881;-67
2023/06/07 10:56:42;;;;;;;14.35;5.43;;;;;;;23.11;100.00;100422.03;5587434;31;34408;-67
2023/06/07 10:59:45;;;;;;;7.93;5.10;;;;;;;23.31;100.00;100420.44;5526613;32;33731;-68
2023/06/07 11:02:49;;;;;;;7.95;4.87;;;;;;;24.00;100.00;100418.06;5526959;32;34380;-67
2023/06/07 11:05:52;;;;;;;7.90;5.07;;;;;;;24.18;100.00;100420.44;5525454;32;33788;-67
2023/06/07 11:09:19;;;;;;;8.32;4.85;;;;;;;23.95;100.00;100420.69;5526928;32;33597;-68
2023/06/07 11:12:40;;;;;;;9.80;5.00;;;;;;;24.11;100.00;100416.25;5526271;32;33799;-67
2023/06/07 11:15:44;;;;;;;11.02;5.30;;;;;;;23.89;100.00;100412.75;5526111;32;33749;-67
2023/06/07 11:18:55;;;;;;;7.12;4.57;;;;;;;23.77;100.00;100423.72;5526187;32;33679;-68
2023/06/07 11:22:06;;;;;;;6.70;4.28;;;;;;;23.63;100.00;100420.59;5526538;32;33794;-68
2023/06/07 11:25:13;;;;;;;10.30;4.60;;;;;;;23.64;100.00;100424.13;5526021;32;34376;-67
2023/06/07 11:28:28;;;;;;;8.45;4.68;;;;;;;23.65;100.00;100421.16;5513564;32;33820;-68
2023/06/07 11:31:31;;;;;;;10.48;4.37;;;;;;;24.83;86.02;100415.84;5581443;31;33725;-68
2023/06/07 11:34:35;;;;;;;8.05;4.10;;;;;;;25.14;84.66;100417.69;5578872;31;33577;-68
2023/06/07 11:37:38;;;;;;;8.80;3.97;;;;;;;26.26;76.28;100418.97;5580747;31;34810;-68
2023/06/07 11:40:43;;;;;;;18.75;4.53;;;;;;;26.65;73.57;100417.38;5578731;31;33674;-67
2023/06/07 11:43:47;;;;;;;11.25;4.30;;;;;;;27.99;64.66;100423.00;5586687;31;34933;-67
2023/06/07 11:46:50;;;;;;;6.10;4.10;;;;;;;29.22;61.71;100414.38;5585790;31;33978;-68
2023/06/07 11:49:53;;;;;;;6.22;3.87;;;;;;;27.99;60.43;100417.53;5586139;31;34882;-68
2023/06/07 11:52:57;;;;;;;8.93;4.03;;;;;;;28.02;62.46;100412.38;5584708;31;33788;-68
2023/06/07 11:56:02;;;;;;;7.97;4.78;;;;;;;28.44;63.69;100408.28;5583393;31;32187;-68
2023/06/07 11:59:09;;;;;;;7.15;4.47;;;;;;;29.57;56.08;100409.63;5585804;31;34421;-67
2023/06/07 12:02:14;;;;;;;5.53;4.68;;;;;;;28.44;56.49;100411.00;5585564;31;33598;-68
2023/06/07 12:05:18;;;;;;;8.73;4.50;;;;;;;26.88;63.13;100402.41;5585616;31;33710;-68
2023/06/07 12:08:22;;;;;;;7.90;4.70;;;;;;;25.91;70.29;100390.59;5586691;31;33630;-67
2023/06/07 12:11:27;;;;;;;6.10;4.85;;;;;;;25.29;74.16;100396.06;5586477;31;33891;-68
2023/06/07 12:14:31;;;;;;;7.82;5.12;;;;;;;26.29;73.25;100386.59;5586289;31;33988;-68
2023/06/07 12:17:35;;;;;;;8.02;5.30;;;;;;;26.60;72.05;100389.34;5585534;31;34590;-66
2023/06/07 12:20:41;;;;;;;7.78;5.18;;;;;;;26.18;69.50;100374.06;5586008;31;34243;-67
2023/06/07 12:23:47;;;;;;;8.02;5.50;;;;;;;26.91;66.21;100371.09;5585086;31;33797;-67
2023/06/07 12:26:56;;;;;;;8.50;4.97;;;;;;;27.78;62.62;100356.88;5585499;31;34515;-67
2023/06/07 12:30:00;;;;;;;10.40;5.07;;;;;;;30.52;56.12;100354.63;5586049;31;33887;-68
2023/06/07 12:33:06;;;;;;;6.30;4.72;;;;;;;33.99;43.75;100349.16;5579109;31;34855;-68
2023/06/07 12:36:10;;;;;;;8.40;4.85;;;;;;;36.32;37.08;100345.34;5581099;31;34217;-67
2023/06/07 12:39:13;;;;;;;7.00;4.50;;;;;;;36.17;37.43;100346.78;5571393;31;33846;-67
2023/06/07 12:42:17;;;;;;;8.30;4.40;;;;;;;36.05;37.26;100338.44;5566253;32;34723;-68
2023/06/07 12:45:21;;;;;;;6.80;4.40;;;;;;;31.78;43.71;100326.62;5566691;32;33884;-68
2023/06/07 12:48:24;;;;;;;9.20;5.18;;;;;;;28.05;54.24;100324.50;5572398;31;33622;-68
2023/06/07 12:51:28;;;;;;;7.72;4.53;;;;;;;30.38;48.34;100316.25;5571288;31;34452;-68
2023/06/07 12:54:33;;;;;;;7.05;4.43;;;;;;;33.83;41.81;100320.53;5578191;31;34937;-69
2023/06/07 12:57:37;;;;;;;6.28;4.32;;;;;;;35.45;37.62;100327.81;5586141;31;34691;-68
2023/06/07 13:00:41;;;;;;;7.95;4.35;;;;;;;33.79;40.14;100319.53;5585892;31;33826;-68
2023/06/07 13:03:44;;;;;;;5.82;4.22;;;;;;;35.34;39.04;100324.69;5585958;31;33563;-68
2023/06/07 13:06:49;;;;;;;6.00;4.57;;;;;;;30.85;43.52;100322.53;5585741;31;34392;-68
2023/06/07 13:09:52;;;;;;;5.18;4.43;;;;;;;28.48;50.28;100314.63;5584835;31;35014;-67
2023/06/07 13:12:56;;;;;;;7.00;4.10;;;;;;;27.77;52.68;100314.34;5585921;31;33965;-68
2023/06/07 13:15:59;;;;;;;9.45;4.30;;;;;;;27.82;55.60;100316.22;5585923;31;33679;-68
2023/06/07 13:19:02;;;;;;;6.85;4.87;;;;;;;28.79;53.35;100315.16;5585654;31;34122;-67
2023/06/07 13:22:07;;;;;;;8.88;4.30;;;;;;;30.39;47.17;100306.94;5585083;31;33876;-68
2023/06/07 13:25:11;;;;;;;6.97;4.93;;;;;;;29.17;50.12;100301.59;5580991;31;33584;-68
2023/06/07 13:28:13;;;;;;;14.15;5.15;;;;;;;27.71;56.95;100298.31;5580733;31;34520;-68
2023/06/07 13:31:20;;;;;;;7.15;4.72;;;;;;;27.94;56.63;100294.87;5580280;31;33772;-67
2023/06/07 13:34:23;;;;;;;6.60;4.75;;;;;;;27.57;60.56;100292.69;5580336;31;35157;-67
2023/06/07 13:37:27;;;;;;;9.65;5.45;;;;;;;26.72;66.04;100292.69;5577512;31;34489;-68
2023/06/07 13:40:30;;;;;;;7.90;5.12;;;;;;;26.41;70.11;100288.41;5573965;31;33773;-67
2023/06/07 13:43:34;;;;;;;8.35;5.57;;;;;;;26.85;67.38;100293.22;5575959;31;34547;-68
2023/06/07 13:46:57;;;;;;;7.82;5.28;;;;;;;26.56;70.65;100282.97;5579193;31;33771;-67
2023/06/07 13:50:02;;;;;;;9.93;5.03;;;;;;;28.06;61.28;100287.97;5571601;31;34343;-67
2023/06/07 13:53:07;;;;;;;9.35;5.00;;;;;;;27.57;61.61;100285.31;5580600;31;34485;-68
2023/06/07 13:56:12;;;;;;;7.20;5.03;;;;;;;29.52;55.49;100278.50;5578601;31;33661;-66
2023/06/07 13:59:17;;;;;;;7.78;4.30;;;;;;;33.72;45.51;100285.41;5585311;31;34487;-68
2023/06/07 14:02:22;;;;;;;6.03;4.53;;;;;;;35.34;39.60;100279.72;5572480;31;33567;-68
2023/06/07 14:05:27;;;;;;;7.60;4.75;;;;;;;31.72;46.99;100273.81;5567567;31;34851;-68
2023/06/07 14:08:33;;;;;;;6.43;4.60;;;;;;;31.99;46.82;100283.88;5578544;31;34666;-68
2023/06/07 14:11:39;;;;;;;10.02;4.50;;;;;;;31.54;47.31;100274.78;5577044;31;34099;-68